createdAt,value
2019-02-07T00:00:18.407Z,0
2019-02-07T00:01:19.119Z,0
2019-02-07T00:02:19.849Z,0
2019-02-07T00:03:20.557Z,0
2019-02-07T00:04:21.271Z,0
2019-02-07T00:05:22.034Z,0
2019-02-07T00:06:22.751Z,0
2019-02-07T00:07:23.470Z,0
2019-02-07T00:08:24.194Z,0
2019-02-07T00:09:24.911Z,0
2019-02-07T00:10:25.618Z,0
2019-02-07T00:11:26.335Z,0
2019-02-07T00:12:27.038Z,0
2019-02-07T00:13:27.752Z,0
2019-02-07T00:14:39.274Z,0
2019-02-07T00:15:29.173Z,0
2019-02-07T00:16:30.030Z,0
2019-02-07T00:17:30.733Z,0
2019-02-07T00:18:31.460Z,0
2019-02-07T00:19:32.170Z,0
2019-02-07T00:20:32.876Z,0
2019-02-07T00:21:33.639Z,0
2019-02-07T00:22:34.350Z,0
2019-02-07T00:23:35.062Z,0
2019-02-07T00:24:42.589Z,0
2019-02-07T00:25:36.485Z,0
2019-02-07T00:26:37.305Z,0
2019-02-07T00:27:38.035Z,0
2019-02-07T00:28:38.740Z,0
2019-02-07T00:29:39.465Z,0
2019-02-07T00:30:40.171Z,0
2019-02-07T00:31:40.937Z,0
2019-02-07T00:32:41.713Z,0
2019-02-07T00:33:42.457Z,0
2019-02-07T00:34:43.191Z,0
2019-02-07T00:35:43.918Z,0
2019-02-07T00:36:44.652Z,0
2019-02-07T00:37:45.361Z,0
2019-02-07T00:38:46.073Z,0
2019-02-07T00:39:46.898Z,0
2019-02-07T00:40:47.888Z,0
2019-02-07T00:41:48.622Z,0
2019-02-07T00:42:49.334Z,0
2019-02-07T00:43:50.047Z,0
2019-02-07T00:44:52.470Z,0
2019-02-07T00:45:51.506Z,0
2019-02-07T00:46:52.221Z,0
2019-02-07T00:47:52.945Z,0
2019-02-07T00:48:53.662Z,0
2019-02-07T00:49:54.381Z,0
2019-02-07T00:50:55.097Z,0
2019-02-07T00:51:55.827Z,0
2019-02-07T00:52:56.532Z,0
2019-02-07T00:53:57.511Z,0
2019-02-07T00:54:58.225Z,0
2019-02-07T00:55:58.935Z,0
2019-02-07T00:56:59.657Z,0
2019-02-07T00:58:00.388Z,0
2019-02-07T00:59:01.147Z,0
2019-02-07T01:00:01.886Z,0
2019-02-07T01:01:02.606Z,0
2019-02-07T01:02:03.316Z,0
2019-02-07T01:03:04.030Z,0
2019-02-07T01:04:04.728Z,0
2019-02-07T01:05:05.453Z,0
2019-02-07T01:06:06.433Z,0
2019-02-07T01:07:07.496Z,0
2019-02-07T01:08:08.150Z,0
2019-02-07T01:09:08.928Z,0
2019-02-07T01:10:09.639Z,0
2019-02-07T01:11:10.625Z,0
2019-02-07T01:12:11.319Z,0
2019-02-07T01:13:12.028Z,0
2019-02-07T01:14:12.843Z,0
2019-02-07T01:15:13.560Z,0
2019-02-07T01:16:14.272Z,0
2019-02-07T01:17:14.995Z,0
2019-02-07T01:18:15.714Z,0
2019-02-07T01:19:16.472Z,0
2019-02-07T01:20:17.184Z,0
2019-02-07T01:21:17.896Z,0
2019-02-07T01:22:18.616Z,0
2019-02-07T01:23:19.328Z,0
2019-02-07T01:24:20.062Z,0
2019-02-07T01:25:20.765Z,0
2019-02-07T01:26:21.480Z,0
2019-02-07T01:27:22.185Z,0
2019-02-07T01:28:22.905Z,0
2019-02-07T01:29:23.611Z,0
2019-02-07T01:30:24.381Z,0
2019-02-07T01:31:25.100Z,0
2019-02-07T01:32:25.817Z,0
2019-02-07T01:33:26.531Z,0
2019-02-07T01:34:27.237Z,0
2019-02-07T01:35:28.056Z,0
2019-02-07T01:36:28.764Z,0
2019-02-07T01:37:29.482Z,0
2019-02-07T01:38:30.195Z,0
2019-02-07T01:39:30.909Z,0
2019-02-07T01:40:31.630Z,0
2019-02-07T01:41:32.341Z,0
2019-02-07T01:42:33.043Z,0
2019-02-07T01:43:33.755Z,0
2019-02-07T01:44:34.474Z,0
2019-02-07T01:45:35.246Z,0
2019-02-07T01:46:35.954Z,0
2019-02-07T01:47:36.673Z,0
2019-02-07T01:48:37.385Z,0
2019-02-07T01:49:38.113Z,0
2019-02-07T01:50:38.837Z,0
2019-02-07T01:51:39.550Z,0
2019-02-07T01:52:40.266Z,0
2019-02-07T01:53:40.984Z,0
2019-02-07T01:54:41.711Z,0
2019-02-07T01:55:42.430Z,0
2019-02-07T01:56:43.136Z,0
2019-02-07T01:57:43.850Z,0
2019-02-07T01:58:44.566Z,0
2019-02-07T01:59:45.285Z,0
2019-02-07T02:00:46.000Z,0
2019-02-07T02:01:46.706Z,0
2019-02-07T02:02:47.423Z,0
2019-02-07T02:03:48.140Z,0
2019-02-07T02:04:48.853Z,0
2019-02-07T02:05:49.564Z,0
2019-02-07T02:06:50.281Z,0
2019-02-07T02:07:50.993Z,0
2019-02-07T02:08:51.704Z,0
2019-02-07T02:09:52.416Z,0
2019-02-07T02:10:53.131Z,0
2019-02-07T02:11:53.947Z,0
2019-02-07T02:12:54.659Z,0
2019-02-07T02:13:55.372Z,0
2019-02-07T02:14:56.093Z,0
2019-02-07T02:15:57.887Z,0
2019-02-07T02:16:58.711Z,0
2019-02-07T02:17:59.811Z,0
2019-02-07T02:19:00.578Z,0
2019-02-07T02:20:01.277Z,0
2019-02-07T02:21:01.985Z,0
2019-02-07T02:22:02.704Z,0
2019-02-07T02:23:03.566Z,0
2019-02-07T02:24:04.554Z,0
2019-02-07T02:25:05.565Z,0
2019-02-07T02:26:06.335Z,0
2019-02-07T02:27:07.349Z,0
2019-02-07T02:28:08.070Z,0
2019-02-07T02:29:08.803Z,0
2019-02-07T02:30:09.862Z,0
2019-02-07T02:31:10.560Z,0
2019-02-07T02:32:11.273Z,0
2019-02-07T02:33:12.002Z,0
2019-02-07T02:34:12.726Z,0
2019-02-07T02:35:13.439Z,0
2019-02-07T02:36:14.151Z,0
2019-02-07T02:37:14.886Z,0
2019-02-07T02:38:15.713Z,0
2019-02-07T02:39:16.308Z,0
2019-02-07T02:40:17.025Z,0
2019-02-07T02:41:17.763Z,0
2019-02-07T02:42:18.472Z,0
2019-02-07T02:43:19.181Z,0
2019-02-07T02:44:20.227Z,0
2019-02-07T02:45:21.254Z,0
2019-02-07T02:46:21.994Z,0
2019-02-07T02:47:22.689Z,0
2019-02-07T02:48:23.407Z,0
2019-02-07T02:49:24.200Z,0
2019-02-07T02:50:24.834Z,0
2019-02-07T02:51:25.590Z,0
2019-02-07T02:52:26.306Z,0
2019-02-07T02:53:27.016Z,0
2019-02-07T02:54:27.722Z,0
2019-02-07T02:55:28.437Z,0
2019-02-07T02:56:29.162Z,0
2019-02-07T02:57:29.876Z,0
2019-02-07T02:58:30.589Z,0
2019-02-07T02:59:31.305Z,0
2019-02-07T03:00:32.026Z,0
2019-02-07T03:01:32.781Z,0
2019-02-07T03:02:33.491Z,0
2019-02-07T03:03:34.197Z,0
2019-02-07T03:04:34.908Z,0
2019-02-07T03:05:35.631Z,0
2019-02-07T03:06:36.344Z,0
2019-02-07T03:07:37.051Z,0
2019-02-07T03:08:37.823Z,0
2019-02-07T03:09:38.497Z,0
2019-02-07T03:10:39.220Z,0
2019-02-07T03:11:39.985Z,0
2019-02-07T03:12:40.711Z,0
2019-02-07T03:13:41.408Z,0
2019-02-07T03:14:42.114Z,0
2019-02-07T03:15:49.618Z,0
2019-02-07T03:16:43.552Z,0
2019-02-07T03:17:44.263Z,0
2019-02-07T03:18:44.974Z,0
2019-02-07T03:19:45.675Z,0
2019-02-07T03:20:46.381Z,0
2019-02-07T03:21:47.103Z,0
2019-02-07T03:22:47.810Z,0
2019-02-07T03:23:48.528Z,0
2019-02-07T03:24:49.244Z,0
2019-02-07T03:25:49.958Z,0
2019-02-07T03:26:50.671Z,0
2019-02-07T03:27:51.392Z,0
2019-02-07T03:28:52.199Z,0
2019-02-07T03:29:52.908Z,0
2019-02-07T03:30:53.626Z,0
2019-02-07T03:31:54.334Z,0
2019-02-07T03:32:55.048Z,0
2019-02-07T03:33:55.874Z,0
2019-02-07T03:34:56.579Z,0
2019-02-07T03:35:57.288Z,0
2019-02-07T03:36:58.012Z,0
2019-02-07T03:37:58.725Z,0
2019-02-07T03:38:59.434Z,0
2019-02-07T03:40:00.314Z,0
2019-02-07T03:41:00.885Z,0
2019-02-07T03:42:01.602Z,0
2019-02-07T03:43:02.313Z,0
2019-02-07T03:44:03.024Z,0
2019-02-07T03:45:03.743Z,0
2019-02-07T03:46:04.456Z,0
2019-02-07T03:47:05.162Z,0
2019-02-07T03:48:06.120Z,0
2019-02-07T03:49:06.843Z,0
2019-02-07T03:50:07.547Z,0
2019-02-07T03:51:08.253Z,0
2019-02-07T03:52:08.969Z,0
2019-02-07T03:53:09.680Z,0
2019-02-07T03:54:10.391Z,0
2019-02-07T03:55:11.146Z,0
2019-02-07T03:56:12.072Z,0
2019-02-07T03:57:12.826Z,0
2019-02-07T03:58:13.624Z,0
2019-02-07T03:59:14.371Z,0
2019-02-07T04:00:15.157Z,0
2019-02-07T04:01:16.067Z,0
2019-02-07T04:02:16.789Z,0
2019-02-07T04:03:17.645Z,0
2019-02-07T04:04:18.624Z,0
2019-02-07T04:05:19.593Z,0
2019-02-07T04:06:20.311Z,0
2019-02-07T04:07:21.030Z,0
2019-02-07T04:08:21.740Z,0
2019-02-07T04:09:22.445Z,0
2019-02-07T04:10:23.148Z,0
2019-02-07T04:11:23.875Z,0
2019-02-07T04:12:24.570Z,0
2019-02-07T04:13:25.277Z,0
2019-02-07T04:14:25.992Z,0
2019-02-07T04:15:26.714Z,0
2019-02-07T04:16:27.417Z,0
2019-02-07T04:17:28.143Z,0
2019-02-07T04:18:28.914Z,0
2019-02-07T04:19:29.628Z,0
2019-02-07T04:20:30.351Z,0
2019-02-07T04:21:31.080Z,0
2019-02-07T04:22:31.799Z,0
2019-02-07T04:23:32.553Z,0
2019-02-07T04:24:33.274Z,0
2019-02-07T04:25:33.999Z,0
2019-02-07T04:26:34.704Z,0
2019-02-07T04:27:35.411Z,0
2019-02-07T04:28:36.134Z,0
2019-02-07T04:29:36.847Z,0
2019-02-07T04:30:37.570Z,0
2019-02-07T04:31:38.286Z,0
2019-02-07T04:32:39.095Z,0
2019-02-07T04:33:39.821Z,0
2019-02-07T04:34:40.528Z,0
2019-02-07T04:35:41.234Z,0
2019-02-07T04:36:41.947Z,0
2019-02-07T04:37:42.713Z,0
2019-02-07T04:38:43.418Z,0
2019-02-07T04:39:44.140Z,0
2019-02-07T04:40:44.867Z,0
2019-02-07T04:41:45.610Z,0
2019-02-07T04:42:46.303Z,0
2019-02-07T04:43:47.013Z,0
2019-02-07T04:44:47.744Z,0
2019-02-07T04:45:48.457Z,0
2019-02-07T04:46:49.153Z,0
2019-02-07T04:47:49.862Z,0
2019-02-07T04:48:50.567Z,0
2019-02-07T04:49:51.272Z,0
2019-02-07T04:50:51.978Z,0
2019-02-07T04:51:52.698Z,0
2019-02-07T04:52:53.469Z,0
2019-02-07T04:53:54.170Z,0
2019-02-07T04:54:54.876Z,0
2019-02-07T04:55:55.617Z,0
2019-02-07T04:56:56.332Z,0
2019-02-07T04:57:57.035Z,0
2019-02-07T04:58:57.753Z,0
2019-02-07T04:59:58.472Z,0
2019-02-07T05:00:59.448Z,0
2019-02-07T05:02:00.301Z,0
2019-02-07T05:03:01.006Z,0
2019-02-07T05:04:01.709Z,0
2019-02-07T05:05:02.425Z,0
2019-02-07T05:06:03.129Z,0
2019-02-07T05:07:03.941Z,0
2019-02-07T05:08:04.657Z,0
2019-02-07T05:09:05.370Z,0
2019-02-07T05:10:06.092Z,0
2019-02-07T05:11:06.794Z,0
2019-02-07T05:12:07.501Z,0
2019-02-07T05:13:08.215Z,0
2019-02-07T05:14:08.941Z,0
2019-02-07T05:15:09.657Z,0
2019-02-07T05:16:10.381Z,0
2019-02-07T05:17:11.112Z,0
2019-02-07T05:18:11.835Z,0
2019-02-07T05:19:12.560Z,0
2019-02-07T05:20:13.269Z,0
2019-02-07T05:21:13.991Z,0
2019-02-07T05:22:14.756Z,0
2019-02-07T05:23:15.434Z,0
2019-02-07T05:24:16.151Z,0
2019-02-07T05:25:16.871Z,0
2019-02-07T05:26:17.841Z,0
2019-02-07T05:27:18.546Z,0
2019-02-07T05:28:19.260Z,0
2019-02-07T05:29:19.980Z,0
2019-02-07T05:30:20.688Z,0
2019-02-07T05:31:21.403Z,0
2019-02-07T05:32:22.114Z,0
2019-02-07T05:33:22.827Z,0
2019-02-07T05:34:23.537Z,0
2019-02-07T05:35:24.255Z,0
2019-02-07T05:36:24.973Z,0
2019-02-07T05:37:25.668Z,0
2019-02-07T05:38:26.387Z,0
2019-02-07T05:39:27.090Z,0
2019-02-07T05:40:28.068Z,0
2019-02-07T05:41:28.761Z,0
2019-02-07T05:42:29.470Z,0
2019-02-07T05:43:30.192Z,0
2019-02-07T05:44:30.905Z,0
2019-02-07T05:45:31.871Z,0
2019-02-07T05:46:32.580Z,0
2019-02-07T05:47:33.303Z,0
2019-02-07T05:48:34.027Z,0
2019-02-07T05:49:34.727Z,0
2019-02-07T05:50:35.689Z,0
2019-02-07T05:51:36.393Z,0
2019-02-07T05:52:37.111Z,0
2019-02-07T05:53:37.818Z,0
2019-02-07T05:54:38.524Z,0
2019-02-07T05:55:39.235Z,0
2019-02-07T05:56:39.950Z,0
2019-02-07T05:57:40.678Z,0
2019-02-07T05:58:41.389Z,0
2019-02-07T05:59:42.096Z,0
2019-02-07T06:00:42.808Z,0
2019-02-07T06:01:43.535Z,0
2019-02-07T06:02:44.231Z,0
2019-02-07T06:03:44.930Z,0
2019-02-07T06:04:45.903Z,0
2019-02-07T06:05:46.608Z,0
2019-02-07T06:06:47.312Z,0
2019-02-07T06:07:48.078Z,0
2019-02-07T06:08:48.781Z,0
2019-02-07T06:09:49.489Z,0
2019-02-07T06:10:50.212Z,0
2019-02-07T06:11:50.934Z,0
2019-02-07T06:12:51.703Z,0
2019-02-07T06:13:52.422Z,0
2019-02-07T06:14:53.140Z,0
2019-02-07T06:15:53.865Z,0
2019-02-07T06:17:02.187Z,0
2019-02-07T06:17:55.286Z,0
2019-02-07T06:18:56.013Z,0
2019-02-07T06:19:56.916Z,0
2019-02-07T06:20:57.631Z,0
2019-02-07T06:21:58.341Z,0
2019-02-07T06:22:59.063Z,0
2019-02-07T06:23:59.774Z,0
2019-02-07T06:25:00.488Z,0
2019-02-07T06:26:01.206Z,0
2019-02-07T06:27:01.919Z,0
2019-02-07T06:28:02.628Z,4
2019-02-07T06:29:03.345Z,4
2019-02-07T06:30:04.045Z,4
2019-02-07T06:31:04.770Z,4
2019-02-07T06:32:05.483Z,4
2019-02-07T06:33:06.313Z,4
2019-02-07T06:34:07.637Z,8
2019-02-07T06:35:07.628Z,8
2019-02-07T06:36:08.341Z,8
2019-02-07T06:37:09.063Z,12
2019-02-07T06:38:09.783Z,16
2019-02-07T06:39:10.486Z,16
2019-02-07T06:40:11.199Z,20
2019-02-07T06:41:12.216Z,24
2019-02-07T06:42:12.916Z,28
2019-02-07T06:43:13.891Z,32
2019-02-07T06:44:14.595Z,36
2019-02-07T06:45:15.313Z,44
2019-02-07T06:46:16.026Z,56
2019-02-07T06:47:16.747Z,56
2019-02-07T06:48:17.472Z,64
2019-02-07T06:49:18.186Z,76
2019-02-07T06:50:18.912Z,84
2019-02-07T06:51:19.625Z,100
2019-02-07T06:52:20.439Z,116
2019-02-07T06:53:21.157Z,136
2019-02-07T06:54:21.867Z,152
2019-02-07T06:55:22.589Z,168
2019-02-07T06:56:23.307Z,172
2019-02-07T06:57:24.013Z,164
2019-02-07T06:58:24.742Z,168
2019-02-07T06:59:25.488Z,192
2019-02-07T07:00:26.191Z,224
2019-02-07T07:01:26.916Z,268
2019-02-07T07:02:27.630Z,284
2019-02-07T07:03:28.391Z,276
2019-02-07T07:04:29.102Z,308
2019-02-07T07:05:29.825Z,320
2019-02-07T07:06:30.543Z,320
2019-02-07T07:07:31.264Z,348
2019-02-07T07:08:32.035Z,380
2019-02-07T07:09:32.755Z,384
2019-02-07T07:10:33.466Z,388
2019-02-07T07:11:34.185Z,416
2019-02-07T07:12:34.901Z,424
2019-02-07T07:13:35.607Z,456
2019-02-07T07:14:36.320Z,528
2019-02-07T07:15:37.190Z,580
2019-02-07T07:16:37.918Z,636
2019-02-07T07:17:38.626Z,732
2019-02-07T07:18:39.336Z,896
2019-02-07T07:19:40.056Z,1024
2019-02-07T07:20:40.823Z,1084
2019-02-07T07:21:41.551Z,1048
2019-02-07T07:22:42.267Z,1192
2019-02-07T07:23:42.980Z,1440
2019-02-07T07:24:43.695Z,1496
2019-02-07T07:25:44.405Z,1460
2019-02-07T07:26:45.272Z,1368
2019-02-07T07:27:46.004Z,1560
2019-02-07T07:28:46.718Z,1596
2019-02-07T07:29:47.432Z,1672
2019-02-07T07:30:48.152Z,1868
2019-02-07T07:31:48.877Z,2344
2019-02-07T07:32:49.587Z,2608
2019-02-07T07:33:50.306Z,2896
2019-02-07T07:34:51.022Z,2964
2019-02-07T07:35:51.744Z,3036
2019-02-07T07:36:52.477Z,3072
2019-02-07T07:37:53.171Z,3016
2019-02-07T07:38:53.886Z,3128
2019-02-07T07:39:54.605Z,3548
2019-02-07T07:40:55.324Z,3772
2019-02-07T07:41:56.080Z,3432
2019-02-07T07:42:56.802Z,3032
2019-02-07T07:43:57.516Z,2756
2019-02-07T07:44:58.238Z,2804
2019-02-07T07:45:58.956Z,2548
2019-02-07T07:46:59.681Z,2260
2019-02-07T07:48:00.389Z,2396
2019-02-07T07:49:01.103Z,2504
2019-02-07T07:50:01.819Z,2364
2019-02-07T07:51:02.528Z,2344
2019-02-07T07:52:03.241Z,2304
2019-02-07T07:53:03.968Z,2196
2019-02-07T07:54:04.680Z,2368
2019-02-07T07:55:05.394Z,2512
2019-02-07T07:56:06.110Z,2496
2019-02-07T07:57:06.905Z,2060
2019-02-07T07:58:07.544Z,1824
2019-02-07T07:59:08.262Z,2052
2019-02-07T08:00:09.035Z,2444
2019-02-07T08:01:09.687Z,2900
2019-02-07T08:02:10.397Z,3264
2019-02-07T08:03:11.115Z,3580
2019-02-07T08:04:11.848Z,3816
2019-02-07T08:05:12.552Z,4148
2019-02-07T08:06:13.274Z,4380
2019-02-07T08:07:13.995Z,4428
2019-02-07T08:08:14.723Z,4408
2019-02-07T08:09:16.050Z,4420
2019-02-07T08:10:16.931Z,4548
2019-02-07T08:11:17.888Z,4804
2019-02-07T08:12:18.875Z,5352
2019-02-07T08:13:20.621Z,5320
2019-02-07T08:14:21.719Z,4716
2019-02-07T08:15:22.794Z,4420
2019-02-07T08:16:24.055Z,3360
2019-02-07T08:17:25.101Z,2316
2019-02-07T08:18:25.866Z,2280
2019-02-07T08:19:26.666Z,2760
2019-02-07T08:20:27.742Z,3008
2019-02-07T08:21:28.533Z,3344
2019-02-07T08:22:29.553Z,3588
2019-02-07T08:23:30.990Z,3824
2019-02-07T08:24:31.710Z,3908
2019-02-07T08:25:33.231Z,3820
2019-02-07T08:26:34.230Z,3912
2019-02-07T08:27:35.265Z,4196
2019-02-07T08:28:36.259Z,4260
2019-02-07T08:29:37.875Z,3516
2019-02-07T08:30:38.621Z,3656
2019-02-07T08:31:39.741Z,3448
2019-02-07T08:32:40.663Z,3576
2019-02-07T08:33:41.390Z,4116
2019-02-07T08:34:42.574Z,3688
2019-02-07T08:35:44.067Z,3396
2019-02-07T08:36:45.172Z,3488
2019-02-07T08:37:46.130Z,3140
2019-02-07T08:38:49.778Z,3036
2019-02-07T08:39:48.243Z,2836
2019-02-07T08:40:49.351Z,3556
2019-02-07T08:41:50.150Z,4204
2019-02-07T08:42:51.155Z,4708
2019-02-07T08:43:52.230Z,4840
2019-02-07T08:44:55.055Z,5432
2019-02-07T08:45:54.345Z,4968
2019-02-07T08:46:55.184Z,4452
2019-02-07T08:47:58.607Z,4196
2019-02-07T08:48:57.181Z,4388
2019-02-07T08:49:58.183Z,4612
2019-02-07T08:50:59.276Z,5384
2019-02-07T08:52:00.130Z,4816
2019-02-07T08:53:00.845Z,4216
2019-02-07T08:54:01.580Z,4704
2019-02-07T08:55:02.304Z,4680
2019-02-07T08:56:03.020Z,4488
2019-02-07T08:57:03.726Z,4400
2019-02-07T08:58:05.055Z,4152
2019-02-07T08:59:05.915Z,3600
2019-02-07T09:00:06.945Z,3392
2019-02-07T09:01:07.654Z,3452
2019-02-07T09:02:08.370Z,3888
2019-02-07T09:03:09.078Z,4508
2019-02-07T09:04:09.936Z,5424
2019-02-07T09:05:10.690Z,4664
2019-02-07T09:06:11.370Z,4580
2019-02-07T09:07:12.076Z,4004
2019-02-07T09:08:12.793Z,3460
2019-02-07T09:09:13.505Z,3616
2019-02-07T09:10:14.223Z,3596
2019-02-07T09:11:14.937Z,3316
2019-02-07T09:12:15.662Z,3504
2019-02-07T09:13:16.382Z,3472
2019-02-07T09:14:17.095Z,2984
2019-02-07T09:15:17.821Z,3172
2019-02-07T09:16:18.532Z,3744
2019-02-07T09:17:19.250Z,3288
2019-02-07T09:18:20.224Z,3224
2019-02-07T09:19:21.280Z,3956
2019-02-07T09:20:21.982Z,3548
2019-02-07T09:21:22.692Z,3676
2019-02-07T09:22:24.080Z,4748
2019-02-07T09:23:24.113Z,5808
2019-02-07T09:24:24.886Z,5900
2019-02-07T09:25:25.606Z,5296
2019-02-07T09:26:26.318Z,4480
2019-02-07T09:27:27.052Z,3828
2019-02-07T09:28:27.770Z,3936
2019-02-07T09:29:28.484Z,3324
2019-02-07T09:30:29.190Z,3948
2019-02-07T09:31:29.911Z,3216
2019-02-07T09:32:30.628Z,2956
2019-02-07T09:33:31.342Z,2856
2019-02-07T09:34:32.064Z,2780
2019-02-07T09:35:32.774Z,3220
2019-02-07T09:36:33.496Z,3876
2019-02-07T09:37:34.200Z,3984
2019-02-07T09:38:34.922Z,3804
2019-02-07T09:39:35.640Z,3568
2019-02-07T09:40:36.365Z,3676
2019-02-07T09:41:37.083Z,4048
2019-02-07T09:42:37.806Z,4640
2019-02-07T09:43:38.815Z,4284
2019-02-07T09:44:39.437Z,3748
2019-02-07T09:45:40.164Z,3588
2019-02-07T09:46:40.922Z,4240
2019-02-07T09:47:41.593Z,4384
2019-02-07T09:48:42.305Z,4056
2019-02-07T09:49:43.009Z,3536
2019-02-07T09:50:43.736Z,3652
2019-02-07T09:51:44.452Z,3800
2019-02-07T09:52:45.230Z,3892
2019-02-07T09:53:46.080Z,3868
2019-02-07T09:54:47.056Z,4124
2019-02-07T09:55:47.769Z,3672
2019-02-07T09:56:48.478Z,3376
2019-02-07T09:57:49.191Z,3200
2019-02-07T09:58:49.909Z,3500
2019-02-07T09:59:50.622Z,3692
2019-02-07T10:00:51.337Z,4204
2019-02-07T10:01:52.296Z,2752
2019-02-07T10:02:53.020Z,2712
2019-02-07T10:03:53.908Z,2660
2019-02-07T10:04:54.614Z,2880
2019-02-07T10:05:55.334Z,4108
2019-02-07T10:06:56.056Z,3476
2019-02-07T10:07:56.771Z,2828
2019-02-07T10:08:57.482Z,2488
2019-02-07T10:09:58.202Z,2564
2019-02-07T10:10:59.010Z,2712
2019-02-07T10:11:59.734Z,3236
2019-02-07T10:13:00.463Z,3196
2019-02-07T10:14:01.167Z,2872
2019-02-07T10:15:01.891Z,2796
2019-02-07T10:16:02.608Z,2576
2019-02-07T10:17:03.372Z,3304
2019-02-07T10:18:04.078Z,3456
2019-02-07T10:19:04.796Z,3052
2019-02-07T10:20:05.513Z,2520
2019-02-07T10:21:06.228Z,2728
2019-02-07T10:22:06.962Z,3236
2019-02-07T10:23:07.666Z,4092
2019-02-07T10:24:08.390Z,4232
2019-02-07T10:25:09.089Z,4864
2019-02-07T10:26:09.841Z,4528
2019-02-07T10:27:10.632Z,4072
2019-02-07T10:28:11.277Z,3464
2019-02-07T10:29:11.997Z,3640
2019-02-07T10:30:12.715Z,3640
2019-02-07T10:31:13.566Z,4084
2019-02-07T10:32:14.214Z,3516
2019-02-07T10:33:14.933Z,4232
2019-02-07T10:34:15.642Z,4268
2019-02-07T10:35:22.863Z,4052
2019-02-07T10:36:17.105Z,5388
2019-02-07T10:37:17.826Z,4928
2019-02-07T10:38:18.551Z,4376
2019-02-07T10:39:19.250Z,4808
2019-02-07T10:40:19.966Z,4920
2019-02-07T10:41:20.674Z,4468
2019-02-07T10:42:21.404Z,4272
2019-02-07T10:43:22.116Z,5468
2019-02-07T10:44:22.852Z,5416
2019-02-07T10:45:23.561Z,9096
2019-02-07T10:46:24.271Z,8672
2019-02-07T10:47:25.035Z,8720
2019-02-07T10:48:25.745Z,10176
2019-02-07T10:49:26.476Z,10308
2019-02-07T10:50:27.178Z,8492
2019-02-07T10:51:27.910Z,7112
2019-02-07T10:52:28.635Z,9912
2019-02-07T10:53:29.345Z,10228
2019-02-07T10:54:30.070Z,7040
2019-02-07T10:55:30.791Z,8344
2019-02-07T10:56:31.511Z,11416
2019-02-07T10:57:32.618Z,11640
2019-02-07T10:58:33.740Z,9460
2019-02-07T10:59:34.639Z,9024
2019-02-07T11:00:35.363Z,5976
2019-02-07T11:01:36.075Z,8360
2019-02-07T11:02:36.796Z,10060
2019-02-07T11:03:37.792Z,9536
2019-02-07T11:04:38.544Z,9836
2019-02-07T11:05:39.267Z,10276
2019-02-07T11:06:39.972Z,8796
2019-02-07T11:07:40.693Z,8552
2019-02-07T11:08:41.396Z,9004
2019-02-07T11:09:42.160Z,7628
2019-02-07T11:10:42.888Z,7748
2019-02-07T11:11:43.609Z,8636
2019-02-07T11:12:44.334Z,7884
2019-02-07T11:13:45.089Z,7188
2019-02-07T11:14:45.762Z,7372
2019-02-07T11:15:46.490Z,6300
2019-02-07T11:16:47.203Z,6672
2019-02-07T11:17:47.915Z,6548
2019-02-07T11:18:55.275Z,11960
2019-02-07T11:19:49.340Z,15812
2019-02-07T11:20:50.062Z,14428
2019-02-07T11:21:50.784Z,12308
2019-02-07T11:22:51.762Z,12740
2019-02-07T11:23:52.745Z,12408
2019-02-07T11:24:53.451Z,11528
2019-02-07T11:25:54.164Z,12608
2019-02-07T11:26:54.877Z,13016
2019-02-07T11:27:55.602Z,11632
2019-02-07T11:28:56.313Z,14256
2019-02-07T11:29:57.030Z,13668
2019-02-07T11:30:57.749Z,15044
2019-02-07T11:31:58.560Z,8068
2019-02-07T11:32:59.287Z,7880
2019-02-07T11:33:59.997Z,9624
2019-02-07T11:35:00.721Z,5684
2019-02-07T11:36:01.432Z,6880
2019-02-07T11:37:02.144Z,9748
2019-02-07T11:38:02.862Z,10580
2019-02-07T11:39:03.568Z,8428
2019-02-07T11:40:04.277Z,7544
2019-02-07T11:41:04.985Z,6644
2019-02-07T11:42:05.697Z,9776
2019-02-07T11:43:06.415Z,9400
2019-02-07T11:44:07.143Z,12248
2019-02-07T11:45:07.856Z,12580
2019-02-07T11:46:08.577Z,10940
2019-02-07T11:47:09.283Z,8600
2019-02-07T11:48:10.004Z,6820
2019-02-07T11:49:10.736Z,11720
2019-02-07T11:50:11.871Z,13112
2019-02-07T11:51:12.575Z,11296
2019-02-07T11:52:13.287Z,10652
2019-02-07T11:53:14.037Z,15240
2019-02-07T11:54:14.753Z,23808
2019-02-07T11:55:15.581Z,17120
2019-02-07T11:56:16.349Z,11412
2019-02-07T11:57:17.003Z,15420
2019-02-07T11:58:17.732Z,8716
2019-02-07T11:59:18.452Z,12080
2019-02-07T12:00:19.165Z,11496
2019-02-07T12:01:19.887Z,8048
2019-02-07T12:02:20.596Z,17024
2019-02-07T12:03:21.325Z,8512
2019-02-07T12:04:22.031Z,22176
2019-02-07T12:05:22.748Z,19648
2019-02-07T12:06:23.470Z,12732
2019-02-07T12:07:24.181Z,25088
2019-02-07T12:08:24.903Z,22560
2019-02-07T12:09:25.613Z,19840
2019-02-07T12:10:26.335Z,20416
2019-02-07T12:11:27.054Z,18592
2019-02-07T12:12:27.787Z,18144
2019-02-07T12:13:28.504Z,17888
2019-02-07T12:14:29.222Z,17536
2019-02-07T12:15:29.952Z,12368
2019-02-07T12:16:30.675Z,7704
2019-02-07T12:17:31.395Z,8320
2019-02-07T12:18:32.113Z,14832
2019-02-07T12:19:32.846Z,13784
2019-02-07T12:20:33.560Z,11164
2019-02-07T12:21:34.281Z,15044
2019-02-07T12:22:37.359Z,9220
2019-02-07T12:23:35.738Z,10884
2019-02-07T12:24:36.457Z,10724
2019-02-07T12:25:37.170Z,10188
2019-02-07T12:26:37.899Z,14616
2019-02-07T12:27:38.621Z,16272
2019-02-07T12:28:39.344Z,10208
2019-02-07T12:29:40.062Z,9480
2019-02-07T12:30:40.770Z,10292
2019-02-07T12:31:41.495Z,19904
2019-02-07T12:32:42.218Z,17516
2019-02-07T12:33:43.752Z,10544
2019-02-07T12:34:45.084Z,6596
2019-02-07T12:35:45.839Z,6428
2019-02-07T12:36:46.671Z,7628
2019-02-07T12:37:47.415Z,25568
2019-02-07T12:38:48.120Z,9752
2019-02-07T12:39:48.851Z,6612
2019-02-07T12:40:49.554Z,11876
2019-02-07T12:41:50.271Z,26208
2019-02-07T12:42:50.976Z,17164
2019-02-07T12:43:51.734Z,20192
2019-02-07T12:44:52.455Z,12928
2019-02-07T12:45:53.178Z,9020
2019-02-07T12:46:53.916Z,11728
2019-02-07T12:47:54.630Z,9892
2019-02-07T12:48:55.357Z,10856
2019-02-07T12:49:56.066Z,10596
2019-02-07T12:50:56.796Z,10008
2019-02-07T12:51:57.501Z,9536
2019-02-07T12:52:58.220Z,11952
2019-02-07T12:53:59.251Z,19488
2019-02-07T12:55:00.036Z,19008
2019-02-07T12:56:00.761Z,12568
2019-02-07T12:57:01.492Z,22016
2019-02-07T12:58:02.506Z,14924
2019-02-07T12:59:03.245Z,22368
2019-02-07T13:00:03.970Z,14888
2019-02-07T13:01:04.694Z,15876
2019-02-07T13:02:05.425Z,16740
2019-02-07T13:03:06.151Z,18112
2019-02-07T13:04:06.872Z,17632
2019-02-07T13:05:07.603Z,16544
2019-02-07T13:06:08.334Z,14352
2019-02-07T13:07:09.064Z,15532
2019-02-07T13:08:09.761Z,16256
2019-02-07T13:09:10.488Z,16268
2019-02-07T13:10:11.267Z,16108
2019-02-07T13:11:12.013Z,11580
2019-02-07T13:12:12.713Z,14420
2019-02-07T13:13:13.471Z,15260
2019-02-07T13:14:14.173Z,14980
2019-02-07T13:15:14.968Z,14228
2019-02-07T13:16:15.953Z,13304
2019-02-07T13:17:16.651Z,10772
2019-02-07T13:18:17.408Z,17696
2019-02-07T13:19:18.468Z,10032
2019-02-07T13:20:19.072Z,9924
2019-02-07T13:21:20.482Z,13884
2019-02-07T13:22:21.302Z,9332
2019-02-07T13:23:22.224Z,9956
2019-02-07T13:24:23.345Z,15228
2019-02-07T13:25:24.390Z,15584
2019-02-07T13:26:25.208Z,11292
2019-02-07T13:27:26.194Z,11144
2019-02-07T13:28:27.209Z,10060
2019-02-07T13:29:28.388Z,10184
2019-02-07T13:30:29.177Z,12624
2019-02-07T13:31:32.533Z,11868
2019-02-07T13:32:31.902Z,11180
2019-02-07T13:33:32.951Z,10620
2019-02-07T13:34:33.692Z,9132
2019-02-07T13:35:34.396Z,9484
2019-02-07T13:36:35.231Z,8900
2019-02-07T13:37:36.986Z,9460
2019-02-07T13:38:38.105Z,9484
2019-02-07T13:39:39.155Z,9252
2019-02-07T13:40:41.310Z,9028
2019-02-07T13:41:42.385Z,10100
2019-02-07T13:42:43.567Z,8204
2019-02-07T13:43:44.998Z,9420
2019-02-07T13:44:46.649Z,10232
2019-02-07T13:45:48.307Z,9744
2019-02-07T13:46:50.748Z,9804
2019-02-07T13:47:52.156Z,8932
2019-02-07T13:48:53.348Z,8632
2019-02-07T13:49:54.090Z,8900
2019-02-07T13:50:55.191Z,8412
2019-02-07T13:51:56.177Z,9184
2019-02-07T13:52:56.949Z,10436
2019-02-07T13:53:59.489Z,9872
2019-02-07T13:54:58.813Z,9432
2019-02-07T13:55:59.809Z,9328
2019-02-07T13:57:00.773Z,10200
2019-02-07T13:58:01.607Z,10864
2019-02-07T13:59:02.349Z,10388
2019-02-07T14:00:03.248Z,9944
2019-02-07T14:01:04.110Z,9816
2019-02-07T14:02:04.854Z,9524
2019-02-07T14:03:05.604Z,9136
2019-02-07T14:04:06.402Z,9392
2019-02-07T14:05:07.507Z,9440
2019-02-07T14:06:08.213Z,9020